METAR Data
IDs: Format: Raw Decoded Include TAF

Data at: 1329 UTC 26 Feb 2021

EHGR 261325Z AUTO 32009KT 280V340 9999 NCD 10/01 Q1035 BLU NOSIG